sensor_id;sensor_type;location;lat;lon;timestamp;P1;durP1;ratioP1;P2;durP2;ratioP2
32932;SDS011;19444;50.518;10.870;2023-06-04T00:02:11;1.42;;;0.80;;
32932;SDS011;19444;50.518;10.870;2023-06-04T00:05:08;1.95;;;0.80;;
32932;SDS011;19444;50.518;10.870;2023-06-04T00:08:05;3.38;;;0.90;;
32932;SDS011;19444;50.518;10.870;2023-06-04T00:11:02;1.58;;;0.50;;
32932;SDS011;19444;50.518;10.870;2023-06-04T00:13:59;2.13;;;0.60;;
32932;SDS011;19444;50.518;10.870;2023-06-04T00:16:57;2.15;;;0.60;;
32932;SDS011;19444;50.518;10.870;2023-06-04T00:19:54;1.35;;;0.70;;
32932;SDS011;19444;50.518;10.870;2023-06-04T00:22:51;3.92;;;0.65;;
32932;SDS011;19444;50.518;10.870;2023-06-04T00:25:48;2.10;;;0.80;;
32932;SDS011;19444;50.518;10.870;2023-06-04T00:28:45;3.15;;;0.75;;
32932;SDS011;19444;50.518;10.870;2023-06-04T00:31:41;1.55;;;0.65;;
32932;SDS011;19444;50.518;10.870;2023-06-04T00:34:38;1.30;;;0.60;;
32932;SDS011;19444;50.518;10.870;2023-06-04T00:37:36;3.80;;;0.70;;
32932;SDS011;19444;50.518;10.870;2023-06-04T00:40:33;1.25;;;0.80;;
32932;SDS011;19444;50.518;10.870;2023-06-04T00:43:30;3.22;;;0.93;;
32932;SDS011;19444;50.518;10.870;2023-06-04T00:46:28;2.83;;;0.90;;
32932;SDS011;19444;50.518;10.870;2023-06-04T00:49:27;1.02;;;0.80;;
32932;SDS011;19444;50.518;10.870;2023-06-04T00:52:24;2.22;;;0.55;;
32932;SDS011;19444;50.518;10.870;2023-06-04T00:55:22;2.70;;;0.63;;
32932;SDS011;19444;50.518;10.870;2023-06-04T00:58:19;2.15;;;0.63;;
32932;SDS011;19444;50.518;10.870;2023-06-04T01:05:03;2.15;;;0.60;;
32932;SDS011;19444;50.518;10.870;2023-06-04T01:08:16;2.40;;;0.60;;
32932;SDS011;19444;50.518;10.870;2023-06-04T01:11:14;2.58;;;0.70;;
32932;SDS011;19444;50.518;10.870;2023-06-04T01:14:11;1.73;;;0.70;;
32932;SDS011;19444;50.518;10.870;2023-06-04T01:20:35;1.92;;;0.77;;
32932;SDS011;19444;50.518;10.870;2023-06-04T01:23:46;1.98;;;0.70;;
32932;SDS011;19444;50.518;10.870;2023-06-04T01:26:56;1.48;;;0.60;;
32932;SDS011;19444;50.518;10.870;2023-06-04T01:29:53;2.58;;;0.50;;
32932;SDS011;19444;50.518;10.870;2023-06-04T01:32:56;1.35;;;0.77;;
32932;SDS011;19444;50.518;10.870;2023-06-04T01:35:53;2.50;;;0.80;;
32932;SDS011;19444;50.518;10.870;2023-06-04T01:38:51;1.67;;;0.70;;
32932;SDS011;19444;50.518;10.870;2023-06-04T01:41:48;1.20;;;0.50;;
32932;SDS011;19444;50.518;10.870;2023-06-04T01:44:44;1.70;;;0.65;;
32932;SDS011;19444;50.518;10.870;2023-06-04T01:47:41;1.85;;;0.60;;
32932;SDS011;19444;50.518;10.870;2023-06-04T01:50:38;2.83;;;0.80;;
32932;SDS011;19444;50.518;10.870;2023-06-04T01:53:35;1.60;;;0.68;;
32932;SDS011;19444;50.518;10.870;2023-06-04T01:56:32;2.55;;;0.70;;
32932;SDS011;19444;50.518;10.870;2023-06-04T01:59:29;3.33;;;0.77;;
32932;SDS011;19444;50.518;10.870;2023-06-04T02:02:28;2.35;;;0.70;;
32932;SDS011;19444;50.518;10.870;2023-06-04T02:05:25;5.05;;;0.90;;
32932;SDS011;19444;50.518;10.870;2023-06-04T02:08:22;2.13;;;0.80;;
32932;SDS011;19444;50.518;10.870;2023-06-04T02:11:21;2.53;;;0.73;;
32932;SDS011;19444;50.518;10.870;2023-06-04T02:14:18;2.00;;;0.88;;
32932;SDS011;19444;50.518;10.870;2023-06-04T02:17:15;1.50;;;0.68;;
32932;SDS011;19444;50.518;10.870;2023-06-04T02:20:12;1.73;;;0.63;;
32932;SDS011;19444;50.518;10.870;2023-06-04T02:23:09;2.50;;;0.82;;
32932;SDS011;19444;50.518;10.870;2023-06-04T02:26:07;1.98;;;0.90;;
32932;SDS011;19444;50.518;10.870;2023-06-04T02:29:04;2.10;;;0.77;;
32932;SDS011;19444;50.518;10.870;2023-06-04T02:32:01;2.50;;;0.60;;
32932;SDS011;19444;50.518;10.870;2023-06-04T02:34:59;3.45;;;0.98;;
32932;SDS011;19444;50.518;10.870;2023-06-04T02:37:56;2.17;;;0.70;;
32932;SDS011;19444;50.518;10.870;2023-06-04T02:40:54;2.30;;;0.95;;
32932;SDS011;19444;50.518;10.870;2023-06-04T02:43:51;3.17;;;0.90;;
32932;SDS011;19444;50.518;10.870;2023-06-04T02:46:48;3.38;;;0.70;;
32932;SDS011;19444;50.518;10.870;2023-06-04T02:49:44;1.35;;;0.65;;
32932;SDS011;19444;50.518;10.870;2023-06-04T02:52:42;1.95;;;0.90;;
32932;SDS011;19444;50.518;10.870;2023-06-04T02:55:39;1.58;;;0.60;;
32932;SDS011;19444;50.518;10.870;2023-06-04T02:58:38;1.52;;;0.50;;
32932;SDS011;19444;50.518;10.870;2023-06-04T03:01:49;2.28;;;0.80;;
32932;SDS011;19444;50.518;10.870;2023-06-04T03:04:46;1.80;;;0.70;;
32932;SDS011;19444;50.518;10.870;2023-06-04T03:07:47;2.13;;;0.70;;
32932;SDS011;19444;50.518;10.870;2023-06-04T03:10:44;2.00;;;0.50;;
32932;SDS011;19444;50.518;10.870;2023-06-04T03:13:41;2.08;;;0.70;;
32932;SDS011;19444;50.518;10.870;2023-06-04T03:16:38;0.98;;;0.63;;
32932;SDS011;19444;50.518;10.870;2023-06-04T03:19:36;1.77;;;0.70;;
32932;SDS011;19444;50.518;10.870;2023-06-04T03:22:35;3.53;;;0.70;;
32932;SDS011;19444;50.518;10.870;2023-06-04T03:25:32;1.25;;;0.75;;
32932;SDS011;19444;50.518;10.870;2023-06-04T03:28:29;2.42;;;0.70;;
32932;SDS011;19444;50.518;10.870;2023-06-04T03:31:27;2.03;;;0.80;;
32932;SDS011;19444;50.518;10.870;2023-06-04T03:34:24;2.20;;;0.77;;
32932;SDS011;19444;50.518;10.870;2023-06-04T03:37:21;2.17;;;0.68;;
32932;SDS011;19444;50.518;10.870;2023-06-04T03:40:18;2.03;;;1.05;;
32932;SDS011;19444;50.518;10.870;2023-06-04T03:43:15;1.20;;;0.55;;
32932;SDS011;19444;50.518;10.870;2023-06-04T03:46:12;1.33;;;0.70;;
32932;SDS011;19444;50.518;10.870;2023-06-04T03:49:09;2.47;;;0.93;;
32932;SDS011;19444;50.518;10.870;2023-06-04T03:52:07;2.65;;;0.80;;
32932;SDS011;19444;50.518;10.870;2023-06-04T03:55:04;1.20;;;0.60;;
32932;SDS011;19444;50.518;10.870;2023-06-04T03:58:01;4.10;;;1.00;;
32932;SDS011;19444;50.518;10.870;2023-06-04T04:00:58;2.20;;;0.63;;
32932;SDS011;19444;50.518;10.870;2023-06-04T04:03:57;1.92;;;0.80;;
32932;SDS011;19444;50.518;10.870;2023-06-04T04:06:54;2.10;;;0.98;;
32932;SDS011;19444;50.518;10.870;2023-06-04T04:09:51;2.47;;;0.77;;
32932;SDS011;19444;50.518;10.870;2023-06-04T04:12:48;2.03;;;0.65;;
32932;SDS011;19444;50.518;10.870;2023-06-04T04:15:46;1.00;;;0.70;;
32932;SDS011;19444;50.518;10.870;2023-06-04T04:18:43;2.15;;;0.55;;
32932;SDS011;19444;50.518;10.870;2023-06-04T04:21:41;1.55;;;0.80;;
32932;SDS011;19444;50.518;10.870;2023-06-04T04:24:38;1.67;;;0.50;;
32932;SDS011;19444;50.518;10.870;2023-06-04T04:27:35;2.22;;;0.70;;
32932;SDS011;19444;50.518;10.870;2023-06-04T04:30:35;2.45;;;0.68;;
32932;SDS011;19444;50.518;10.870;2023-06-04T04:33:32;1.48;;;0.60;;
32932;SDS011;19444;50.518;10.870;2023-06-04T04:36:33;1.80;;;0.60;;
32932;SDS011;19444;50.518;10.870;2023-06-04T04:39:32;3.47;;;0.93;;
32932;SDS011;19444;50.518;10.870;2023-06-04T04:42:29;1.73;;;0.90;;
32932;SDS011;19444;50.518;10.870;2023-06-04T04:45:26;1.88;;;0.77;;
32932;SDS011;19444;50.518;10.870;2023-06-04T04:48:23;3.20;;;0.98;;
32932;SDS011;19444;50.518;10.870;2023-06-04T04:51:22;3.42;;;1.33;;
32932;SDS011;19444;50.518;10.870;2023-06-04T04:54:18;4.75;;;1.30;;
32932;SDS011;19444;50.518;10.870;2023-06-04T04:57:16;2.50;;;0.90;;
32932;SDS011;19444;50.518;10.870;2023-06-04T05:00:13;3.67;;;1.17;;
32932;SDS011;19444;50.518;10.870;2023-06-04T05:03:11;3.97;;;0.88;;
32932;SDS011;19444;50.518;10.870;2023-06-04T05:06:08;2.03;;;0.90;;
32932;SDS011;19444;50.518;10.870;2023-06-04T05:09:05;2.38;;;0.70;;
32932;SDS011;19444;50.518;10.870;2023-06-04T05:12:03;1.70;;;0.73;;
32932;SDS011;19444;50.518;10.870;2023-06-04T05:15:01;2.53;;;0.90;;
32932;SDS011;19444;50.518;10.870;2023-06-04T05:17:59;3.50;;;1.00;;
32932;SDS011;19444;50.518;10.870;2023-06-04T05:21:00;1.88;;;1.17;;
32932;SDS011;19444;50.518;10.870;2023-06-04T05:23:59;2.13;;;0.90;;
32932;SDS011;19444;50.518;10.870;2023-06-04T05:26:56;1.88;;;0.77;;
32932;SDS011;19444;50.518;10.870;2023-06-04T05:29:53;3.33;;;1.10;;
32932;SDS011;19444;50.518;10.870;2023-06-04T05:32:50;1.70;;;0.88;;
32932;SDS011;19444;50.518;10.870;2023-06-04T05:35:50;2.35;;;0.70;;
32932;SDS011;19444;50.518;10.870;2023-06-04T05:38:54;3.97;;;1.10;;
32932;SDS011;19444;50.518;10.870;2023-06-04T05:41:53;2.03;;;1.00;;
32932;SDS011;19444;50.518;10.870;2023-06-04T05:44:50;2.25;;;1.00;;
32932;SDS011;19444;50.518;10.870;2023-06-04T05:47:48;4.65;;;1.15;;
32932;SDS011;19444;50.518;10.870;2023-06-04T05:50:44;1.98;;;1.02;;
32932;SDS011;19444;50.518;10.870;2023-06-04T05:53:43;1.60;;;0.80;;
32932;SDS011;19444;50.518;10.870;2023-06-04T05:56:40;2.65;;;1.38;;
32932;SDS011;19444;50.518;10.870;2023-06-04T05:59:37;2.35;;;1.02;;
32932;SDS011;19444;50.518;10.870;2023-06-04T06:02:34;3.13;;;0.90;;
32932;SDS011;19444;50.518;10.870;2023-06-04T06:05:31;1.90;;;0.80;;
32932;SDS011;19444;50.518;10.870;2023-06-04T06:08:28;2.15;;;0.73;;
32932;SDS011;19444;50.518;10.870;2023-06-04T06:11:25;2.67;;;0.80;;
32932;SDS011;19444;50.518;10.870;2023-06-04T06:14:23;1.60;;;0.73;;
32932;SDS011;19444;50.518;10.870;2023-06-04T06:17:20;2.03;;;0.70;;
32932;SDS011;19444;50.518;10.870;2023-06-04T06:20:17;1.58;;;0.70;;
32932;SDS011;19444;50.518;10.870;2023-06-04T06:23:14;1.48;;;0.68;;
32932;SDS011;19444;50.518;10.870;2023-06-04T06:26:12;2.00;;;0.63;;
32932;SDS011;19444;50.518;10.870;2023-06-04T06:29:10;3.42;;;1.10;;
32932;SDS011;19444;50.518;10.870;2023-06-04T06:32:07;1.05;;;0.50;;
32932;SDS011;19444;50.518;10.870;2023-06-04T06:35:05;2.60;;;0.70;;
32932;SDS011;19444;50.518;10.870;2023-06-04T06:38:03;1.05;;;0.47;;
32932;SDS011;19444;50.518;10.870;2023-06-04T06:41:01;2.45;;;0.70;;
32932;SDS011;19444;50.518;10.870;2023-06-04T06:43:57;1.13;;;0.60;;
32932;SDS011;19444;50.518;10.870;2023-06-04T06:46:54;1.30;;;0.60;;
32932;SDS011;19444;50.518;10.870;2023-06-04T06:49:51;0.70;;;0.40;;
32932;SDS011;19444;50.518;10.870;2023-06-04T06:52:49;1.70;;;0.70;;
32932;SDS011;19444;50.518;10.870;2023-06-04T06:55:46;2.30;;;0.75;;
32932;SDS011;19444;50.518;10.870;2023-06-04T06:58:43;3.03;;;0.82;;
32932;SDS011;19444;50.518;10.870;2023-06-04T07:01:41;3.03;;;0.70;;
32932;SDS011;19444;50.518;10.870;2023-06-04T07:04:38;2.90;;;0.65;;
32932;SDS011;19444;50.518;10.870;2023-06-04T07:07:35;1.60;;;0.70;;
32932;SDS011;19444;50.518;10.870;2023-06-04T07:10:32;2.78;;;0.63;;
32932;SDS011;19444;50.518;10.870;2023-06-04T07:13:29;1.83;;;0.68;;
32932;SDS011;19444;50.518;10.870;2023-06-04T07:16:28;1.75;;;0.73;;
32932;SDS011;19444;50.518;10.870;2023-06-04T07:19:26;1.05;;;0.65;;
32932;SDS011;19444;50.518;10.870;2023-06-04T07:22:23;2.80;;;1.05;;
32932;SDS011;19444;50.518;10.870;2023-06-04T07:25:20;1.50;;;0.80;;
32932;SDS011;19444;50.518;10.870;2023-06-04T07:28:19;2.97;;;1.20;;
32932;SDS011;19444;50.518;10.870;2023-06-04T07:31:16;2.42;;;1.20;;
32932;SDS011;19444;50.518;10.870;2023-06-04T07:34:14;3.58;;;1.20;;
32932;SDS011;19444;50.518;10.870;2023-06-04T07:37:11;4.25;;;2.20;;
32932;SDS011;19444;50.518;10.870;2023-06-04T07:40:08;3.33;;;2.17;;
32932;SDS011;19444;50.518;10.870;2023-06-04T07:43:07;3.67;;;2.35;;
32932;SDS011;19444;50.518;10.870;2023-06-04T07:46:04;4.22;;;2.55;;
32932;SDS011;19444;50.518;10.870;2023-06-04T07:49:01;5.25;;;3.20;;
32932;SDS011;19444;50.518;10.870;2023-06-04T07:51:58;3.28;;;2.30;;
32932;SDS011;19444;50.518;10.870;2023-06-04T07:54:55;7.38;;;3.40;;
32932;SDS011;19444;50.518;10.870;2023-06-04T07:57:53;4.07;;;2.85;;
32932;SDS011;19444;50.518;10.870;2023-06-04T08:00:49;6.43;;;3.90;;
32932;SDS011;19444;50.518;10.870;2023-06-04T08:03:47;5.03;;;2.90;;
32932;SDS011;19444;50.518;10.870;2023-06-04T08:06:44;3.42;;;2.60;;
32932;SDS011;19444;50.518;10.870;2023-06-04T08:09:41;5.07;;;2.85;;
32932;SDS011;19444;50.518;10.870;2023-06-04T08:12:40;4.05;;;2.67;;
32932;SDS011;19444;50.518;10.870;2023-06-04T08:15:37;4.20;;;2.70;;
32932;SDS011;19444;50.518;10.870;2023-06-04T08:18:37;5.60;;;3.03;;
32932;SDS011;19444;50.518;10.870;2023-06-04T08:21:35;4.63;;;2.90;;
32932;SDS011;19444;50.518;10.870;2023-06-04T08:24:32;3.65;;;3.00;;
32932;SDS011;19444;50.518;10.870;2023-06-04T08:27:29;4.60;;;2.83;;
32932;SDS011;19444;50.518;10.870;2023-06-04T08:30:27;3.78;;;2.97;;
32932;SDS011;19444;50.518;10.870;2023-06-04T08:33:24;4.07;;;2.90;;
32932;SDS011;19444;50.518;10.870;2023-06-04T08:36:21;4.57;;;2.47;;
32932;SDS011;19444;50.518;10.870;2023-06-04T08:39:18;5.07;;;3.00;;
32932;SDS011;19444;50.518;10.870;2023-06-04T08:42:16;5.40;;;2.25;;
32932;SDS011;19444;50.518;10.870;2023-06-04T08:45:21;3.17;;;2.53;;
32932;SDS011;19444;50.518;10.870;2023-06-04T08:48:19;2.45;;;1.85;;
32932;SDS011;19444;50.518;10.870;2023-06-04T08:51:20;4.18;;;2.30;;
32932;SDS011;19444;50.518;10.870;2023-06-04T08:54:18;4.00;;;2.42;;
32932;SDS011;19444;50.518;10.870;2023-06-04T08:57:15;4.32;;;2.47;;
32932;SDS011;19444;50.518;10.870;2023-06-04T09:00:15;5.88;;;2.08;;
32932;SDS011;19444;50.518;10.870;2023-06-04T09:03:13;3.33;;;1.92;;
32932;SDS011;19444;50.518;10.870;2023-06-04T09:06:13;1.75;;;1.55;;
32932;SDS011;19444;50.518;10.870;2023-06-04T09:09:11;4.45;;;2.60;;
32932;SDS011;19444;50.518;10.870;2023-06-04T09:12:12;2.15;;;1.90;;
32932;SDS011;19444;50.518;10.870;2023-06-04T09:15:17;2.90;;;2.45;;
32932;SDS011;19444;50.518;10.870;2023-06-04T09:18:14;3.30;;;2.45;;
32932;SDS011;19444;50.518;10.870;2023-06-04T09:21:11;3.40;;;2.15;;
32932;SDS011;19444;50.518;10.870;2023-06-04T09:24:08;2.40;;;2.13;;
32932;SDS011;19444;50.518;10.870;2023-06-04T09:27:11;3.33;;;2.20;;
32932;SDS011;19444;50.518;10.870;2023-06-04T09:30:10;2.42;;;1.95;;
32932;SDS011;19444;50.518;10.870;2023-06-04T09:33:10;2.97;;;2.10;;
32932;SDS011;19444;50.518;10.870;2023-06-04T09:36:08;2.60;;;2.17;;
32932;SDS011;19444;50.518;10.870;2023-06-04T09:39:15;4.22;;;2.67;;
32932;SDS011;19444;50.518;10.870;2023-06-04T09:42:13;3.58;;;2.13;;
32932;SDS011;19444;50.518;10.870;2023-06-04T09:45:10;3.42;;;2.40;;
32932;SDS011;19444;50.518;10.870;2023-06-04T09:48:07;3.22;;;2.28;;
32932;SDS011;19444;50.518;10.870;2023-06-04T09:51:15;3.15;;;2.40;;
32932;SDS011;19444;50.518;10.870;2023-06-04T09:54:16;3.72;;;2.70;;
32932;SDS011;19444;50.518;10.870;2023-06-04T09:57:13;3.33;;;2.80;;
32932;SDS011;19444;50.518;10.870;2023-06-04T10:00:12;4.25;;;3.00;;
32932;SDS011;19444;50.518;10.870;2023-06-04T10:03:19;3.85;;;2.78;;
32932;SDS011;19444;50.518;10.870;2023-06-04T10:06:21;3.65;;;2.72;;
32932;SDS011;19444;50.518;10.870;2023-06-04T10:09:22;3.28;;;2.33;;
32932;SDS011;19444;50.518;10.870;2023-06-04T10:12:25;4.57;;;3.30;;
32932;SDS011;19444;50.518;10.870;2023-06-04T10:15:27;5.07;;;3.05;;
32932;SDS011;19444;50.518;10.870;2023-06-04T10:18:27;5.15;;;3.53;;
32932;SDS011;19444;50.518;10.870;2023-06-04T10:21:25;3.00;;;2.67;;
32932;SDS011;19444;50.518;10.870;2023-06-04T10:24:22;3.08;;;2.78;;
32932;SDS011;19444;50.518;10.870;2023-06-04T10:27:22;3.70;;;3.30;;
32932;SDS011;19444;50.518;10.870;2023-06-04T10:30:19;3.05;;;2.75;;
32932;SDS011;19444;50.518;10.870;2023-06-04T10:33:17;2.92;;;2.63;;
32932;SDS011;19444;50.518;10.870;2023-06-04T10:36:20;2.80;;;2.30;;
32932;SDS011;19444;50.518;10.870;2023-06-04T10:39:25;3.92;;;3.00;;
32932;SDS011;19444;50.518;10.870;2023-06-04T10:42:24;4.32;;;3.38;;
32932;SDS011;19444;50.518;10.870;2023-06-04T10:45:28;4.47;;;3.53;;
32932;SDS011;19444;50.518;10.870;2023-06-04T10:48:25;4.00;;;3.22;;
32932;SDS011;19444;50.518;10.870;2023-06-04T10:51:29;5.50;;;3.72;;
32932;SDS011;19444;50.518;10.870;2023-06-04T10:54:29;4.35;;;3.55;;
32932;SDS011;19444;50.518;10.870;2023-06-04T10:57:26;3.83;;;3.25;;
32932;SDS011;19444;50.518;10.870;2023-06-04T11:00:39;3.63;;;3.25;;
32932;SDS011;19444;50.518;10.870;2023-06-04T11:03:46;2.85;;;2.40;;
32932;SDS011;19444;50.518;10.870;2023-06-04T11:06:44;2.97;;;2.63;;
32932;SDS011;19444;50.518;10.870;2023-06-04T11:09:47;3.30;;;3.00;;
32932;SDS011;19444;50.518;10.870;2023-06-04T11:12:49;3.10;;;2.45;;
32932;SDS011;19444;50.518;10.870;2023-06-04T11:15:46;3.58;;;2.40;;
32932;SDS011;19444;50.518;10.870;2023-06-04T11:18:56;3.97;;;2.80;;
32932;SDS011;19444;50.518;10.870;2023-06-04T11:21:55;3.20;;;2.90;;
32932;SDS011;19444;50.518;10.870;2023-06-04T11:24:58;4.28;;;2.97;;
32932;SDS011;19444;50.518;10.870;2023-06-04T11:27:57;3.55;;;2.58;;
32932;SDS011;19444;50.518;10.870;2023-06-04T11:30:58;3.10;;;2.08;;
32932;SDS011;19444;50.518;10.870;2023-06-04T11:33:59;2.90;;;2.38;;
32932;SDS011;19444;50.518;10.870;2023-06-04T11:36:56;3.47;;;2.83;;
32932;SDS011;19444;50.518;10.870;2023-06-04T11:40:15;3.20;;;2.45;;
32932;SDS011;19444;50.518;10.870;2023-06-04T11:43:16;3.95;;;2.22;;
32932;SDS011;19444;50.518;10.870;2023-06-04T11:46:13;2.75;;;2.22;;
32932;SDS011;19444;50.518;10.870;2023-06-04T11:49:16;3.17;;;2.30;;
32932;SDS011;19444;50.518;10.870;2023-06-04T11:52:17;2.38;;;2.00;;
32932;SDS011;19444;50.518;10.870;2023-06-04T11:55:15;4.40;;;2.00;;
32932;SDS011;19444;50.518;10.870;2023-06-04T11:58:19;3.65;;;2.22;;
32932;SDS011;19444;50.518;10.870;2023-06-04T12:01:16;2.42;;;1.90;;
32932;SDS011;19444;50.518;10.870;2023-06-04T12:04:13;1.90;;;1.65;;
32932;SDS011;19444;50.518;10.870;2023-06-04T12:07:18;1.98;;;1.60;;
32932;SDS011;19444;50.518;10.870;2023-06-04T12:10:20;2.28;;;1.70;;
32932;SDS011;19444;50.518;10.870;2023-06-04T12:13:18;3.13;;;2.00;;
32932;SDS011;19444;50.518;10.870;2023-06-04T12:16:15;3.85;;;1.88;;
32932;SDS011;19444;50.518;10.870;2023-06-04T12:19:12;2.15;;;1.52;;
32932;SDS011;19444;50.518;10.870;2023-06-04T12:22:09;1.65;;;1.40;;
32932;SDS011;19444;50.518;10.870;2023-06-04T12:25:06;30.05;;;3.45;;
32932;SDS011;19444;50.518;10.870;2023-06-04T12:28:04;5.47;;;1.77;;
32932;SDS011;19444;50.518;10.870;2023-06-04T12:31:02;3.08;;;1.40;;
32932;SDS011;19444;50.518;10.870;2023-06-04T12:33:59;5.22;;;1.45;;
32932;SDS011;19444;50.518;10.870;2023-06-04T12:36:57;3.78;;;1.40;;
32932;SDS011;19444;50.518;10.870;2023-06-04T12:39:54;1.73;;;1.20;;
32932;SDS011;19444;50.518;10.870;2023-06-04T12:42:51;3.45;;;1.55;;
32932;SDS011;19444;50.518;10.870;2023-06-04T12:45:48;1.88;;;1.10;;
32932;SDS011;19444;50.518;10.870;2023-06-04T12:48:45;2.47;;;1.10;;
32932;SDS011;19444;50.518;10.870;2023-06-04T12:51:42;1.50;;;1.23;;
32932;SDS011;19444;50.518;10.870;2023-06-04T12:54:39;1.80;;;1.33;;
32932;SDS011;19444;50.518;10.870;2023-06-04T12:57:36;2.33;;;1.20;;
32932;SDS011;19444;50.518;10.870;2023-06-04T13:00:33;1.80;;;1.27;;
32932;SDS011;19444;50.518;10.870;2023-06-04T13:03:30;2.00;;;1.30;;
32932;SDS011;19444;50.518;10.870;2023-06-04T13:06:27;1.67;;;0.93;;
32932;SDS011;19444;50.518;10.870;2023-06-04T13:09:24;1.58;;;1.10;;
32932;SDS011;19444;50.518;10.870;2023-06-04T13:12:24;1.95;;;1.33;;
32932;SDS011;19444;50.518;10.870;2023-06-04T13:15:21;2.08;;;1.13;;
32932;SDS011;19444;50.518;10.870;2023-06-04T13:18:18;3.00;;;1.30;;
32932;SDS011;19444;50.518;10.870;2023-06-04T13:21:15;2.22;;;1.30;;
32932;SDS011;19444;50.518;10.870;2023-06-04T13:24:12;1.73;;;1.15;;
32932;SDS011;19444;50.518;10.870;2023-06-04T13:27:09;2.22;;;1.20;;
32932;SDS011;19444;50.518;10.870;2023-06-04T13:30:06;2.28;;;1.38;;
32932;SDS011;19444;50.518;10.870;2023-06-04T13:33:04;2.53;;;1.30;;
32932;SDS011;19444;50.518;10.870;2023-06-04T13:36:04;2.05;;;1.60;;
32932;SDS011;19444;50.518;10.870;2023-06-04T13:39:02;3.58;;;1.45;;
32932;SDS011;19444;50.518;10.870;2023-06-04T13:42:01;2.20;;;1.55;;
32932;SDS011;19444;50.518;10.870;2023-06-04T13:44:58;3.05;;;1.10;;
32932;SDS011;19444;50.518;10.870;2023-06-04T13:47:55;1.77;;;1.10;;
32932;SDS011;19444;50.518;10.870;2023-06-04T13:50:55;2.70;;;1.43;;
32932;SDS011;19444;50.518;10.870;2023-06-04T13:53:51;1.45;;;1.20;;
32932;SDS011;19444;50.518;10.870;2023-06-04T13:56:49;1.85;;;1.35;;
32932;SDS011;19444;50.518;10.870;2023-06-04T13:59:46;2.47;;;1.50;;
32932;SDS011;19444;50.518;10.870;2023-06-04T14:02:45;1.80;;;1.40;;
32932;SDS011;19444;50.518;10.870;2023-06-04T14:05:43;1.67;;;1.30;;
32932;SDS011;19444;50.518;10.870;2023-06-04T14:08:39;2.70;;;1.48;;
32932;SDS011;19444;50.518;10.870;2023-06-04T14:11:38;2.00;;;1.67;;
32932;SDS011;19444;50.518;10.870;2023-06-04T14:14:35;3.10;;;1.45;;
32932;SDS011;19444;50.518;10.870;2023-06-04T14:17:32;2.72;;;1.45;;
32932;SDS011;19444;50.518;10.870;2023-06-04T14:20:30;2.78;;;1.52;;
32932;SDS011;19444;50.518;10.870;2023-06-04T14:23:28;2.60;;;1.20;;
32932;SDS011;19444;50.518;10.870;2023-06-04T14:26:25;2.10;;;1.45;;
32932;SDS011;19444;50.518;10.870;2023-06-04T14:29:22;2.33;;;1.30;;
32932;SDS011;19444;50.518;10.870;2023-06-04T14:32:19;2.00;;;1.35;;
32932;SDS011;19444;50.518;10.870;2023-06-04T14:35:16;2.25;;;1.48;;
32932;SDS011;19444;50.518;10.870;2023-06-04T14:38:13;1.65;;;1.30;;
32932;SDS011;19444;50.518;10.870;2023-06-04T14:41:11;1.60;;;1.10;;
32932;SDS011;19444;50.518;10.870;2023-06-04T14:44:08;2.50;;;1.50;;
32932;SDS011;19444;50.518;10.870;2023-06-04T14:47:05;3.13;;;1.70;;
32932;SDS011;19444;50.518;10.870;2023-06-04T14:50:03;3.85;;;1.60;;
32932;SDS011;19444;50.518;10.870;2023-06-04T14:53:00;2.85;;;1.42;;
32932;SDS011;19444;50.518;10.870;2023-06-04T14:55:57;2.60;;;1.38;;
32932;SDS011;19444;50.518;10.870;2023-06-04T14:58:54;2.30;;;1.33;;
32932;SDS011;19444;50.518;10.870;2023-06-04T15:01:52;2.80;;;1.50;;
32932;SDS011;19444;50.518;10.870;2023-06-04T15:04:50;2.08;;;1.20;;
32932;SDS011;19444;50.518;10.870;2023-06-04T15:07:47;2.00;;;1.13;;
32932;SDS011;19444;50.518;10.870;2023-06-04T15:10:43;1.98;;;1.30;;
32932;SDS011;19444;50.518;10.870;2023-06-04T15:13:40;2.50;;;1.08;;
32932;SDS011;19444;50.518;10.870;2023-06-04T15:16:37;1.95;;;1.42;;
32932;SDS011;19444;50.518;10.870;2023-06-04T15:19:34;1.60;;;1.17;;
32932;SDS011;19444;50.518;10.870;2023-06-04T15:22:31;1.52;;;1.17;;
32932;SDS011;19444;50.518;10.870;2023-06-04T15:25:28;3.58;;;1.90;;
32932;SDS011;19444;50.518;10.870;2023-06-04T15:28:25;3.97;;;1.50;;
32932;SDS011;19444;50.518;10.870;2023-06-04T15:31:22;2.33;;;1.30;;
32932;SDS011;19444;50.518;10.870;2023-06-04T15:34:19;1.83;;;1.30;;
32932;SDS011;19444;50.518;10.870;2023-06-04T15:37:16;2.47;;;1.60;;
32932;SDS011;19444;50.518;10.870;2023-06-04T15:40:13;2.55;;;1.60;;
32932;SDS011;19444;50.518;10.870;2023-06-04T15:43:10;2.95;;;1.23;;
32932;SDS011;19444;50.518;10.870;2023-06-04T15:46:07;1.73;;;1.02;;
32932;SDS011;19444;50.518;10.870;2023-06-04T15:49:05;2.35;;;1.40;;
32932;SDS011;19444;50.518;10.870;2023-06-04T15:52:03;2.22;;;1.42;;
32932;SDS011;19444;50.518;10.870;2023-06-04T15:55:00;3.97;;;1.40;;
32932;SDS011;19444;50.518;10.870;2023-06-04T15:57:57;2.30;;;1.48;;
32932;SDS011;19444;50.518;10.870;2023-06-04T16:00:54;1.95;;;1.13;;
32932;SDS011;19444;50.518;10.870;2023-06-04T16:03:51;2.00;;;1.35;;
32932;SDS011;19444;50.518;10.870;2023-06-04T16:06:51;3.05;;;1.20;;
32932;SDS011;19444;50.518;10.870;2023-06-04T16:09:48;1.80;;;1.17;;
32932;SDS011;19444;50.518;10.870;2023-06-04T16:12:45;2.83;;;1.63;;
32932;SDS011;19444;50.518;10.870;2023-06-04T16:15:42;3.05;;;1.45;;
32932;SDS011;19444;50.518;10.870;2023-06-04T16:18:39;3.83;;;0.93;;
32932;SDS011;19444;50.518;10.870;2023-06-04T16:21:36;1.50;;;0.90;;
32932;SDS011;19444;50.518;10.870;2023-06-04T16:24:33;3.45;;;1.30;;
32932;SDS011;19444;50.518;10.870;2023-06-04T16:27:30;2.15;;;1.23;;
32932;SDS011;19444;50.518;10.870;2023-06-04T16:30:28;1.70;;;1.15;;
32932;SDS011;19444;50.518;10.870;2023-06-04T16:33:27;2.55;;;1.25;;
32932;SDS011;19444;50.518;10.870;2023-06-04T16:36:24;1.85;;;1.23;;
32932;SDS011;19444;50.518;10.870;2023-06-04T16:39:21;1.58;;;0.93;;
32932;SDS011;19444;50.518;10.870;2023-06-04T16:42:19;1.85;;;1.10;;
32932;SDS011;19444;50.518;10.870;2023-06-04T16:45:16;1.65;;;0.90;;
32932;SDS011;19444;50.518;10.870;2023-06-04T16:48:13;3.22;;;1.10;;
32932;SDS011;19444;50.518;10.870;2023-06-04T16:51:11;4.82;;;1.20;;
32932;SDS011;19444;50.518;10.870;2023-06-04T16:54:07;1.80;;;0.98;;
32932;SDS011;19444;50.518;10.870;2023-06-04T16:57:04;1.42;;;1.05;;
32932;SDS011;19444;50.518;10.870;2023-06-04T17:00:02;1.33;;;0.80;;
32932;SDS011;19444;50.518;10.870;2023-06-04T17:03:21;1.40;;;0.70;;
32932;SDS011;19444;50.518;10.870;2023-06-04T17:06:18;1.60;;;0.95;;
32932;SDS011;19444;50.518;10.870;2023-06-04T17:09:15;2.60;;;0.80;;
32932;SDS011;19444;50.518;10.870;2023-06-04T17:12:12;2.08;;;1.02;;
32932;SDS011;19444;50.518;10.870;2023-06-04T17:15:09;3.08;;;0.82;;
32932;SDS011;19444;50.518;10.870;2023-06-04T17:18:06;1.98;;;0.80;;
32932;SDS011;19444;50.518;10.870;2023-06-04T17:21:06;2.38;;;0.88;;
32932;SDS011;19444;50.518;10.870;2023-06-04T17:24:06;2.88;;;0.80;;
32932;SDS011;19444;50.518;10.870;2023-06-04T17:27:04;2.22;;;0.82;;
32932;SDS011;19444;50.518;10.870;2023-06-04T17:30:00;2.45;;;0.82;;
32932;SDS011;19444;50.518;10.870;2023-06-04T17:32:59;3.15;;;0.88;;
32932;SDS011;19444;50.518;10.870;2023-06-04T17:35:56;2.25;;;0.80;;
32932;SDS011;19444;50.518;10.870;2023-06-04T17:38:53;1.38;;;0.80;;
32932;SDS011;19444;50.518;10.870;2023-06-04T17:41:50;2.50;;;0.80;;
32932;SDS011;19444;50.518;10.870;2023-06-04T17:44:47;2.90;;;0.80;;